sensor_id;sensor_type;location;lat;lon;timestamp;pressure;altitude;pressure_sealevel;temperature;humidity
61697;BME280;47610;52.252;20.922;2023-04-28T00:01:19;100692.80;;;6.51;100.00
61697;BME280;47610;52.252;20.922;2023-04-28T00:06:22;100693.10;;;6.45;100.00
61697;BME280;47610;52.252;20.922;2023-04-28T00:11:25;100694.16;;;6.39;100.00
61697;BME280;47610;52.252;20.922;2023-04-28T00:16:28;100695.19;;;6.30;100.00
61697;BME280;47610;52.252;20.922;2023-04-28T00:21:32;100692.66;;;6.22;100.00
61697;BME280;47610;52.252;20.922;2023-04-28T00:26:35;100700.45;;;6.14;100.00
61697;BME280;47610;52.252;20.922;2023-04-28T00:31:38;100701.56;;;6.05;100.00
61697;BME280;47610;52.252;20.922;2023-04-28T00:36:41;100699.86;;;5.98;100.00
61697;BME280;47610;52.252;20.922;2023-04-28T00:41:44;100698.00;;;5.94;100.00
61697;BME280;47610;52.252;20.922;2023-04-28T00:46:48;100701.23;;;5.90;100.00
61697;BME280;47610;52.252;20.922;2023-04-28T00:51:51;100699.34;;;5.84;100.00
61697;BME280;47610;52.252;20.922;2023-04-28T00:56:55;100698.55;;;5.80;100.00
61697;BME280;47610;52.252;20.922;2023-04-28T01:02:00;100703.14;;;5.76;100.00
61697;BME280;47610;52.252;20.922;2023-04-28T01:07:04;100704.48;;;5.73;100.00
61697;BME280;47610;52.252;20.922;2023-04-28T01:12:07;100703.64;;;5.68;100.00
61697;BME280;47610;52.252;20.922;2023-04-28T01:17:11;100707.20;;;5.62;100.00
61697;BME280;47610;52.252;20.922;2023-04-28T01:22:14;100707.90;;;5.56;100.00
61697;BME280;47610;52.252;20.922;2023-04-28T01:27:18;100710.30;;;5.50;100.00
61697;BME280;47610;52.252;20.922;2023-04-28T01:32:21;100710.88;;;5.42;100.00
61697;BME280;47610;52.252;20.922;2023-04-28T01:37:24;100714.64;;;5.38;100.00
61697;BME280;47610;52.252;20.922;2023-04-28T01:42:27;100716.46;;;5.35;100.00
61697;BME280;47610;52.252;20.922;2023-04-28T01:47:31;100715.80;;;5.31;100.00
61697;BME280;47610;52.252;20.922;2023-04-28T01:52:34;100718.57;;;5.28;100.00
61697;BME280;47610;52.252;20.922;2023-04-28T01:57:37;100723.42;;;5.24;100.00
61697;BME280;47610;52.252;20.922;2023-04-28T02:02:40;100721.25;;;5.20;100.00
61697;BME280;47610;52.252;20.922;2023-04-28T02:07:43;100715.77;;;5.15;100.00
61697;BME280;47610;52.252;20.922;2023-04-28T02:12:46;100720.12;;;5.11;100.00
61697;BME280;47610;52.252;20.922;2023-04-28T02:17:50;100717.44;;;5.07;100.00
61697;BME280;47610;52.252;20.922;2023-04-28T02:22:53;100715.64;;;5.04;100.00
61697;BME280;47610;52.252;20.922;2023-04-28T02:27:56;100712.65;;;5.01;100.00
61697;BME280;47610;52.252;20.922;2023-04-28T02:32:59;100716.77;;;5.00;100.00
61697;BME280;47610;52.252;20.922;2023-04-28T02:38:02;100720.14;;;4.97;100.00
61697;BME280;47610;52.252;20.922;2023-04-28T02:43:06;100725.19;;;4.92;100.00
61697;BME280;47610;52.252;20.922;2023-04-28T02:48:09;100726.33;;;4.89;100.00
61697;BME280;47610;52.252;20.922;2023-04-28T02:53:12;100722.35;;;4.85;100.00
61697;BME280;47610;52.252;20.922;2023-04-28T02:58:15;100726.25;;;4.82;100.00
61697;BME280;47610;52.252;20.922;2023-04-28T03:03:19;100724.88;;;4.81;100.00
61697;BME280;47610;52.252;20.922;2023-04-28T03:08:22;100729.86;;;4.81;100.00
61697;BME280;47610;52.252;20.922;2023-04-28T03:13:25;100727.05;;;4.81;100.00
61697;BME280;47610;52.252;20.922;2023-04-28T03:18:28;100729.83;;;4.81;100.00
61697;BME280;47610;52.252;20.922;2023-04-28T03:23:31;100729.10;;;4.82;100.00
61697;BME280;47610;52.252;20.922;2023-04-28T03:28:34;100728.34;;;4.86;100.00
61697;BME280;47610;52.252;20.922;2023-04-28T03:33:38;100734.17;;;4.92;100.00
61697;BME280;47610;52.252;20.922;2023-04-28T03:38:41;100738.16;;;4.98;100.00
61697;BME280;47610;52.252;20.922;2023-04-28T03:43:44;100738.25;;;5.11;100.00
61697;BME280;47610;52.252;20.922;2023-04-28T03:48:47;100734.55;;;5.26;100.00
61697;BME280;47610;52.252;20.922;2023-04-28T03:53:50;100737.33;;;5.43;100.00
61697;BME280;47610;52.252;20.922;2023-04-28T03:58:53;100736.99;;;5.62;100.00
61697;BME280;47610;52.252;20.922;2023-04-28T04:03:57;100737.45;;;5.76;100.00
61697;BME280;47610;52.252;20.922;2023-04-28T04:09:00;100741.72;;;5.87;100.00
61697;BME280;47610;52.252;20.922;2023-04-28T04:14:03;100746.05;;;5.94;100.00
61697;BME280;47610;52.252;20.922;2023-04-28T04:19:06;100754.42;;;5.97;100.00
61697;BME280;47610;52.252;20.922;2023-04-28T04:24:10;100754.97;;;5.99;100.00
61697;BME280;47610;52.252;20.922;2023-04-28T04:29:13;100759.05;;;6.75;100.00
61697;BME280;47610;52.252;20.922;2023-04-28T04:34:16;100769.39;;;9.74;100.00
61697;BME280;47610;52.252;20.922;2023-04-28T04:39:19;100772.46;;;12.96;100.00
61697;BME280;47610;52.252;20.922;2023-04-28T04:44:22;100778.16;;;15.86;97.32
61697;BME280;47610;52.252;20.922;2023-04-28T04:49:26;100783.52;;;18.56;80.65
61697;BME280;47610;52.252;20.922;2023-04-28T04:54:29;100793.88;;;21.23;64.81
61697;BME280;47610;52.252;20.922;2023-04-28T04:59:32;100801.90;;;23.50;50.70
61697;BME280;47610;52.252;20.922;2023-04-28T05:04:35;100806.38;;;25.55;40.89
61697;BME280;47610;52.252;20.922;2023-04-28T05:09:38;100805.02;;;27.29;33.91
61697;BME280;47610;52.252;20.922;2023-04-28T05:14:43;100814.00;;;28.67;29.49
61697;BME280;47610;52.252;20.922;2023-04-28T05:19:44;100814.52;;;28.91;26.88
61697;BME280;47610;52.252;20.922;2023-04-28T05:24:47;100816.75;;;29.26;25.67
61697;BME280;47610;52.252;20.922;2023-04-28T05:29:51;100814.55;;;28.96;24.65
61697;BME280;47610;52.252;20.922;2023-04-28T05:34:54;100811.45;;;28.46;24.30
61697;BME280;47610;52.252;20.922;2023-04-28T05:39:57;100808.89;;;27.63;24.18
61697;BME280;47610;52.252;20.922;2023-04-28T05:45:00;100811.37;;;26.41;24.92
61697;BME280;47610;52.252;20.922;2023-04-28T05:50:06;100815.80;;;26.53;24.71
61697;BME280;47610;52.252;20.922;2023-04-28T05:55:10;100817.58;;;25.85;24.91
61697;BME280;47610;52.252;20.922;2023-04-28T06:00:15;100817.92;;;25.89;25.16
61697;BME280;47610;52.252;20.922;2023-04-28T06:05:19;100816.52;;;26.10;24.59
61697;BME280;47610;52.252;20.922;2023-04-28T06:10:24;100814.56;;;25.32;25.10
61697;BME280;47610;52.252;20.922;2023-04-28T06:15:27;100813.77;;;25.22;25.15
61697;BME280;47610;52.252;20.922;2023-04-28T06:20:30;100816.23;;;25.93;24.81
61697;BME280;47610;52.252;20.922;2023-04-28T06:25:34;100815.92;;;26.15;24.15
61697;BME280;47610;52.252;20.922;2023-04-28T06:30:37;100817.56;;;25.36;23.86
61697;BME280;47610;52.252;20.922;2023-04-28T06:35:40;100816.09;;;24.84;24.29
61697;BME280;47610;52.252;20.922;2023-04-28T06:40:43;100813.64;;;24.71;24.65
61697;BME280;47610;52.252;20.922;2023-04-28T06:45:47;100819.58;;;24.64;24.51
61697;BME280;47610;52.252;20.922;2023-04-28T06:50:50;100816.46;;;25.05;24.52
61697;BME280;47610;52.252;20.922;2023-04-28T06:55:53;100822.08;;;26.06;23.85
61697;BME280;47610;52.252;20.922;2023-04-28T07:00:57;100821.80;;;26.04;23.12
61697;BME280;47610;52.252;20.922;2023-04-28T07:06:00;100821.94;;;25.74;22.87
61697;BME280;47610;52.252;20.922;2023-04-28T07:11:04;100822.15;;;25.72;22.86
61697;BME280;47610;52.252;20.922;2023-04-28T07:16:07;100814.70;;;25.11;22.85
61697;BME280;47610;52.252;20.922;2023-04-28T07:21:11;100814.39;;;24.59;23.18
61697;BME280;47610;52.252;20.922;2023-04-28T07:26:15;100816.19;;;25.89;22.30
61697;BME280;47610;52.252;20.922;2023-04-28T07:31:18;100813.54;;;27.74;20.73
61697;BME280;47610;52.252;20.922;2023-04-28T07:36:21;100812.56;;;29.00;19.57
61697;BME280;47610;52.252;20.922;2023-04-28T07:41:27;100808.52;;;29.39;19.02
61697;BME280;47610;52.252;20.922;2023-04-28T07:46:30;100803.00;;;29.59;19.10
61697;BME280;47610;52.252;20.922;2023-04-28T07:51:34;100800.95;;;29.95;18.66
61697;BME280;47610;52.252;20.922;2023-04-28T07:56:39;100799.27;;;30.47;17.70
61697;BME280;47610;52.252;20.922;2023-04-28T08:01:42;100797.23;;;30.76;17.65
61697;BME280;47610;52.252;20.922;2023-04-28T08:06:48;100792.66;;;30.34;17.46
61697;BME280;47610;52.252;20.922;2023-04-28T08:11:51;100788.11;;;30.33;17.09
61697;BME280;47610;52.252;20.922;2023-04-28T08:16:55;100788.64;;;30.23;16.92
61697;BME280;47610;52.252;20.922;2023-04-28T08:21:58;100790.27;;;31.13;15.75
61697;BME280;47610;52.252;20.922;2023-04-28T08:27:03;100778.67;;;31.68;15.57
61697;BME280;47610;52.252;20.922;2023-04-28T08:32:08;100780.34;;;32.39;15.09
61697;BME280;47610;52.252;20.922;2023-04-28T08:37:11;100776.77;;;32.89;14.55
61697;BME280;47610;52.252;20.922;2023-04-28T08:42:13;100772.73;;;33.06;14.01
61697;BME280;47610;52.252;20.922;2023-04-28T08:47:19;100767.20;;;32.12;14.49
61697;BME280;47610;52.252;20.922;2023-04-28T08:52:26;100762.45;;;31.98;14.94
61697;BME280;47610;52.252;20.922;2023-04-28T08:57:36;100764.05;;;32.27;14.29
61697;BME280;47610;52.252;20.922;2023-04-28T09:02:40;100757.08;;;32.15;13.17
61697;BME280;47610;52.252;20.922;2023-04-28T09:07:45;100750.45;;;30.96;13.30
61697;BME280;47610;52.252;20.922;2023-04-28T09:12:51;100750.46;;;31.16;14.09
61697;BME280;47610;52.252;20.922;2023-04-28T09:17:55;100741.61;;;31.19;13.98
61697;BME280;47610;52.252;20.922;2023-04-28T09:23:14;100742.64;;;31.44;13.74
61697;BME280;47610;52.252;20.922;2023-04-28T09:28:22;100740.87;;;30.61;13.91
61697;BME280;47610;52.252;20.922;2023-04-28T09:33:25;100737.95;;;30.68;14.37
61697;BME280;47610;52.252;20.922;2023-04-28T09:38:29;100734.67;;;30.45;13.92
61697;BME280;47610;52.252;20.922;2023-04-28T09:43:34;100727.21;;;29.23;14.52
61697;BME280;47610;52.252;20.922;2023-04-28T09:48:38;100718.16;;;28.15;15.61
61697;BME280;47610;52.252;20.922;2023-04-28T09:53:39;100710.94;;;27.18;15.43
61697;BME280;47610;52.252;20.922;2023-04-28T09:58:44;100701.76;;;25.60;16.41
61697;BME280;47610;52.252;20.922;2023-04-28T10:03:51;100691.54;;;24.73;17.46
61697;BME280;47610;52.252;20.922;2023-04-28T10:08:55;100682.94;;;23.89;18.16
61697;BME280;47610;52.252;20.922;2023-04-28T10:13:59;100669.18;;;22.71;19.97
61697;BME280;47610;52.252;20.922;2023-04-28T10:19:02;100663.11;;;21.33;21.43
61697;BME280;47610;52.252;20.922;2023-04-28T10:24:16;100662.19;;;20.70;21.15
61697;BME280;47610;52.252;20.922;2023-04-28T10:29:25;100657.05;;;19.97;21.43
61697;BME280;47610;52.252;20.922;2023-04-28T10:34:28;100646.60;;;19.06;21.82
61697;BME280;47610;52.252;20.922;2023-04-28T10:39:32;100641.74;;;18.68;22.55
61697;BME280;47610;52.252;20.922;2023-04-28T10:44:44;100636.77;;;18.36;22.89
61697;BME280;47610;52.252;20.922;2023-04-28T10:50:10;100630.68;;;18.00;23.91
61697;BME280;47610;52.252;20.922;2023-04-28T10:55:28;100636.25;;;17.50;23.93
61697;BME280;47610;52.252;20.922;2023-04-28T11:00:34;100634.59;;;17.10;24.40
61697;BME280;47610;52.252;20.922;2023-04-28T11:05:37;100616.77;;;16.87;25.13
61697;BME280;47610;52.252;20.922;2023-04-28T11:16:11;100614.22;;;16.46;26.15
61697;BME280;47610;52.252;20.922;2023-04-28T11:21:16;100613.72;;;16.49;26.10
61697;BME280;47610;52.252;20.922;2023-04-28T11:26:20;100600.73;;;16.45;26.69
61697;BME280;47610;52.252;20.922;2023-04-28T11:31:25;100599.70;;;16.40;27.39
61697;BME280;47610;52.252;20.922;2023-04-28T11:36:31;100596.69;;;16.42;27.43
61697;BME280;47610;52.252;20.922;2023-04-28T11:41:35;100593.24;;;16.50;26.70
61697;BME280;47610;52.252;20.922;2023-04-28T11:46:45;100592.61;;;16.51;26.14
61697;BME280;47610;52.252;20.922;2023-04-28T11:51:49;100594.36;;;16.48;26.03
61697;BME280;47610;52.252;20.922;2023-04-28T11:56:54;100593.20;;;16.49;26.68
61697;BME280;47610;52.252;20.922;2023-04-28T12:02:00;100584.77;;;16.62;28.05
61697;BME280;47610;52.252;20.922;2023-04-28T12:07:06;100572.58;;;16.52;28.41
61697;BME280;47610;52.252;20.922;2023-04-28T12:12:11;100577.21;;;16.59;27.44
61697;BME280;47610;52.252;20.922;2023-04-28T12:17:24;100566.05;;;16.61;27.77
61697;BME280;47610;52.252;20.922;2023-04-28T12:22:28;100563.20;;;16.60;27.96
61697;BME280;47610;52.252;20.922;2023-04-28T12:27:32;100560.98;;;16.44;27.20
61697;BME280;47610;52.252;20.922;2023-04-28T12:32:41;100552.36;;;16.29;26.80
61697;BME280;47610;52.252;20.922;2023-04-28T12:37:44;100541.19;;;16.29;27.73
61697;BME280;47610;52.252;20.922;2023-04-28T12:42:48;100542.44;;;16.05;27.94
61697;BME280;47610;52.252;20.922;2023-04-28T12:47:52;100538.27;;;15.92;28.03
61697;BME280;47610;52.252;20.922;2023-04-28T12:52:55;100538.52;;;15.84;28.79
61697;BME280;47610;52.252;20.922;2023-04-28T12:57:58;100538.06;;;15.92;28.28
61697;BME280;47610;52.252;20.922;2023-04-28T13:03:01;100531.27;;;15.93;27.73
61697;BME280;47610;52.252;20.922;2023-04-28T13:08:06;100529.63;;;15.85;27.91
61697;BME280;47610;52.252;20.922;2023-04-28T13:13:09;100530.79;;;15.70;28.63
61697;BME280;47610;52.252;20.922;2023-04-28T13:18:12;100525.38;;;15.50;29.22
61697;BME280;47610;52.252;20.922;2023-04-28T13:23:15;100517.65;;;15.44;29.97
61697;BME280;47610;52.252;20.922;2023-04-28T13:28:19;100506.35;;;15.24;29.85
61697;BME280;47610;52.252;20.922;2023-04-28T13:33:22;100506.06;;;15.06;30.34
61697;BME280;47610;52.252;20.922;2023-04-28T13:38:27;100502.81;;;15.00;30.51
61697;BME280;47610;52.252;20.922;2023-04-28T13:43:31;100494.45;;;14.88;29.70
61697;BME280;47610;52.252;20.922;2023-04-28T13:48:35;100492.08;;;14.86;30.66
61697;BME280;47610;52.252;20.922;2023-04-28T13:53:38;100488.31;;;14.89;31.55
61697;BME280;47610;52.252;20.922;2023-04-28T13:58:43;100484.70;;;14.85;31.27
61697;BME280;47610;52.252;20.922;2023-04-28T14:03:47;100478.65;;;14.77;31.28
61697;BME280;47610;52.252;20.922;2023-04-28T14:08:49;100477.10;;;14.66;31.64
61697;BME280;47610;52.252;20.922;2023-04-28T14:13:52;100471.60;;;14.54;31.34
61697;BME280;47610;52.252;20.922;2023-04-28T14:18:56;100464.48;;;14.41;31.40
61697;BME280;47610;52.252;20.922;2023-04-28T14:24:00;100456.93;;;14.26;32.25
61697;BME280;47610;52.252;20.922;2023-04-28T14:29:04;100453.04;;;14.16;32.41
61697;BME280;47610;52.252;20.922;2023-04-28T14:34:11;100447.67;;;14.11;32.71
61697;BME280;47610;52.252;20.922;2023-04-28T14:39:14;100442.20;;;14.02;33.05
61697;BME280;47610;52.252;20.922;2023-04-28T14:44:17;100441.23;;;13.96;33.47
61697;BME280;47610;52.252;20.922;2023-04-28T14:49:22;100433.48;;;13.91;33.57
61697;BME280;47610;52.252;20.922;2023-04-28T14:54:26;100428.50;;;13.87;34.14
61697;BME280;47610;52.252;20.922;2023-04-28T14:59:30;100425.23;;;13.88;34.63
61697;BME280;47610;52.252;20.922;2023-04-28T15:04:34;100418.62;;;13.86;34.29
61697;BME280;47610;52.252;20.922;2023-04-28T15:09:37;100417.30;;;13.86;34.40
61697;BME280;47610;52.252;20.922;2023-04-28T15:14:40;100406.33;;;13.90;35.79
61697;BME280;47610;52.252;20.922;2023-04-28T15:19:44;100395.96;;;13.91;36.57
61697;BME280;47610;52.252;20.922;2023-04-28T15:24:47;100400.60;;;13.92;36.77
61697;BME280;47610;52.252;20.922;2023-04-28T15:29:51;100392.35;;;13.97;37.01
61697;BME280;47610;52.252;20.922;2023-04-28T15:34:54;100388.72;;;13.99;37.52
61697;BME280;47610;52.252;20.922;2023-04-28T15:39:58;100391.34;;;13.93;36.97
61697;BME280;47610;52.252;20.922;2023-04-28T15:45:01;100387.23;;;13.94;36.89
61697;BME280;47610;52.252;20.922;2023-04-28T15:50:07;100385.80;;;14.02;36.40
61697;BME280;47610;52.252;20.922;2023-04-28T15:55:11;100376.36;;;14.00;36.42
61697;BME280;47610;52.252;20.922;2023-04-28T16:00:15;100380.67;;;13.88;36.21
61697;BME280;47610;52.252;20.922;2023-04-28T16:05:19;100383.16;;;13.81;36.69
61697;BME280;47610;52.252;20.922;2023-04-28T16:10:22;100379.77;;;13.82;37.25
61697;BME280;47610;52.252;20.922;2023-04-28T16:15:25;100377.73;;;13.84;37.14
61697;BME280;47610;52.252;20.922;2023-04-28T16:20:29;100373.94;;;13.83;37.39
61697;BME280;47610;52.252;20.922;2023-04-28T16:25:33;100367.72;;;13.77;37.68
61697;BME280;47610;52.252;20.922;2023-04-28T16:30:36;100365.64;;;13.66;37.98
61697;BME280;47610;52.252;20.922;2023-04-28T16:35:39;100367.98;;;13.56;38.00
61697;BME280;47610;52.252;20.922;2023-04-28T16:40:42;100367.52;;;13.49;38.14
61697;BME280;47610;52.252;20.922;2023-04-28T16:45:45;100361.27;;;13.48;38.57
61697;BME280;47610;52.252;20.922;2023-04-28T16:50:49;100357.38;;;13.47;38.54
61697;BME280;47610;52.252;20.922;2023-04-28T16:55:52;100353.86;;;13.45;38.83
61697;BME280;47610;52.252;20.922;2023-04-28T17:00:55;100351.46;;;13.42;39.22
61697;BME280;47610;52.252;20.922;2023-04-28T17:05:59;100348.92;;;13.38;39.40
61697;BME280;47610;52.252;20.922;2023-04-28T17:11:04;100346.52;;;13.31;39.96
61697;BME280;47610;52.252;20.922;2023-04-28T17:16:09;100340.08;;;13.20;40.44
61697;BME280;47610;52.252;20.922;2023-04-28T17:21:14;100335.88;;;13.11;40.85
61697;BME280;47610;52.252;20.922;2023-04-28T17:26:19;100336.04;;;13.00;41.24
61697;BME280;47610;52.252;20.922;2023-04-28T17:31:22;100332.73;;;12.90;42.09
61697;BME280;47610;52.252;20.922;2023-04-28T17:36:25;100327.04;;;12.79;42.64
61697;BME280;47610;52.252;20.922;2023-04-28T17:41:28;100329.70;;;12.68;43.39
61697;BME280;47610;52.252;20.922;2023-04-28T17:46:32;100330.74;;;12.56;43.80
61697;BME280;47610;52.252;20.922;2023-04-28T17:51:36;100331.05;;;12.46;44.53
61697;BME280;47610;52.252;20.922;2023-04-28T17:56:42;100327.80;;;12.33;45.19
61697;BME280;47610;52.252;20.922;2023-04-28T18:01:46;100325.66;;;12.22;45.86
61697;BME280;47610;52.252;20.922;2023-04-28T18:06:49;100327.89;;;12.14;46.38
61697;BME280;47610;52.252;20.922;2023-04-28T18:11:52;100326.13;;;12.07;46.93
61697;BME280;47610;52.252;20.922;2023-04-28T18:16:55;100318.47;;;11.96;47.40
61697;BME280;47610;52.252;20.922;2023-04-28T18:21:58;100326.67;;;11.87;47.82
61697;BME280;47610;52.252;20.922;2023-04-28T18:27:03;100322.64;;;11.77;48.27
61697;BME280;47610;52.252;20.922;2023-04-28T18:32:06;100327.11;;;11.65;48.81
61697;BME280;47610;52.252;20.922;2023-04-28T18:37:09;100320.92;;;11.56;49.21
61697;BME280;47610;52.252;20.922;2023-04-28T18:42:14;100323.63;;;11.48;49.86
61697;BME280;47610;52.252;20.922;2023-04-28T18:47:17;100326.52;;;11.41;50.48
61697;BME280;47610;52.252;20.922;2023-04-28T18:52:21;100320.98;;;11.36;51.02
61697;BME280;47610;52.252;20.922;2023-04-28T18:57:25;100320.89;;;11.31;51.58
61697;BME280;47610;52.252;20.922;2023-04-28T19:02:28;100317.61;;;11.24;52.03
61697;BME280;47610;52.252;20.922;2023-04-28T19:07:31;100316.86;;;11.18;52.42
61697;BME280;47610;52.252;20.922;2023-04-28T19:12:34;100319.20;;;11.14;52.93
61697;BME280;47610;52.252;20.922;2023-04-28T19:17:37;100324.78;;;11.07;53.13
61697;BME280;47610;52.252;20.922;2023-04-28T19:22:41;100317.25;;;11.02;53.68
61697;BME280;47610;52.252;20.922;2023-04-28T19:27:45;100315.23;;;10.97;54.00
61697;BME280;47610;52.252;20.922;2023-04-28T19:32:48;100316.99;;;10.91;54.34
61697;BME280;47610;52.252;20.922;2023-04-28T19:37:51;100316.08;;;10.86;54.64
61697;BME280;47610;52.252;20.922;2023-04-28T19:42:54;100313.55;;;10.80;55.20
61697;BME280;47610;52.252;20.922;2023-04-28T19:47:59;100310.33;;;10.73;55.80
61697;BME280;47610;52.252;20.922;2023-04-28T19:53:03;100312.92;;;10.66;56.34
61697;BME280;47610;52.252;20.922;2023-04-28T19:58:05;100308.41;;;10.59;57.25
61697;BME280;47610;52.252;20.922;2023-04-28T20:03:09;100309.05;;;10.51;58.04
61697;BME280;47610;52.252;20.922;2023-04-28T20:08:13;100303.98;;;10.43;58.79
61697;BME280;47610;52.252;20.922;2023-04-28T20:13:16;100310.69;;;10.36;59.93
61697;BME280;47610;52.252;20.922;2023-04-28T20:18:20;100315.38;;;10.30;60.50
61697;BME280;47610;52.252;20.922;2023-04-28T20:23:23;100311.79;;;10.30;60.94
61697;BME280;47610;52.252;20.922;2023-04-28T20:28:26;100310.54;;;10.31;61.28
61697;BME280;47610;52.252;20.922;2023-04-28T20:33:29;100314.61;;;10.31;61.83
61697;BME280;47610;52.252;20.922;2023-04-28T20:38:33;100314.96;;;10.25;62.32
61697;BME280;47610;52.252;20.922;2023-04-28T20:43:36;100317.60;;;10.16;63.15
61697;BME280;47610;52.252;20.922;2023-04-28T20:48:40;100310.60;;;10.06;63.76
61697;BME280;47610;52.252;20.922;2023-04-28T20:53:43;100313.29;;;9.96;65.17
61697;BME280;47610;52.252;20.922;2023-04-28T20:58:46;100309.98;;;9.86;66.36
61697;BME280;47610;52.252;20.922;2023-04-28T21:03:50;100309.75;;;9.79;67.72
61697;BME280;47610;52.252;20.922;2023-04-28T21:08:53;100305.34;;;9.76;68.78
61697;BME280;47610;52.252;20.922;2023-04-28T21:13:56;100305.06;;;9.72;69.43
61697;BME280;47610;52.252;20.922;2023-04-28T21:18:59;100298.85;;;9.69;70.11
61697;BME280;47610;52.252;20.922;2023-04-28T21:24:02;100294.32;;;9.65;70.31
61697;BME280;47610;52.252;20.922;2023-04-28T21:29:06;100298.45;;;9.64;70.83
61697;BME280;47610;52.252;20.922;2023-04-28T21:34:09;100294.74;;;9.59;71.26
61697;BME280;47610;52.252;20.922;2023-04-28T21:39:12;100295.39;;;9.53;71.92
61697;BME280;47610;52.252;20.922;2023-04-28T21:44:15;100296.97;;;9.47;72.36
61697;BME280;47610;52.252;20.922;2023-04-28T21:49:19;100294.42;;;9.42;72.63
61697;BME280;47610;52.252;20.922;2023-04-28T21:54:22;100293.20;;;9.37;73.06
61697;BME280;47610;52.252;20.922;2023-04-28T21:59:25;100291.60;;;9.34;73.57
61697;BME280;47610;52.252;20.922;2023-04-28T22:04:28;100293.19;;;9.31;73.81
61697;BME280;47610;52.252;20.922;2023-04-28T22:09:32;100286.15;;;9.29;73.85
61697;BME280;47610;52.252;20.922;2023-04-28T22:14:35;100285.58;;;9.25;73.99
61697;BME280;47610;52.252;20.922;2023-04-28T22:19:38;100277.67;;;9.23;74.27
61697;BME280;47610;52.252;20.922;2023-04-28T22:24:42;100282.61;;;9.21;74.25
61697;BME280;47610;52.252;20.922;2023-04-28T22:29:45;100282.12;;;9.22;74.19
61697;BME280;47610;52.252;20.922;2023-04-28T22:34:48;100277.89;;;9.23;74.01
61697;BME280;47610;52.252;20.922;2023-04-28T22:39:51;100270.75;;;9.25;74.35
61697;BME280;47610;52.252;20.922;2023-04-28T22:44:54;100266.19;;;9.25;74.36
61697;BME280;47610;52.252;20.922;2023-04-28T22:49:58;100266.95;;;9.23;74.64
61697;BME280;47610;52.252;20.922;2023-04-28T22:55:01;100265.08;;;9.19;75.15
61697;BME280;47610;52.252;20.922;2023-04-28T23:00:05;100265.70;;;9.14;75.43
61697;BME280;47610;52.252;20.922;2023-04-28T23:05:10;100266.18;;;9.07;75.87
61697;BME280;47610;52.252;20.922;2023-04-28T23:10:13;100265.51;;;9.03;76.46
61697;BME280;47610;52.252;20.922;2023-04-28T23:15:16;100254.34;;;8.97;77.26
61697;BME280;47610;52.252;20.922;2023-04-28T23:20:20;100255.13;;;8.91;77.81
61697;BME280;47610;52.252;20.922;2023-04-28T23:25:23;100251.20;;;8.84;78.58
61697;BME280;47610;52.252;20.922;2023-04-28T23:30:26;100247.11;;;8.78;79.18
61697;BME280;47610;52.252;20.922;2023-04-28T23:35:29;100245.29;;;8.75;79.79
61697;BME280;47610;52.252;20.922;2023-04-28T23:40:33;100241.78;;;8.68;80.51
61697;BME280;47610;52.252;20.922;2023-04-28T23:45:36;100236.77;;;8.63;81.21
61697;BME280;47610;52.252;20.922;2023-04-28T23:50:39;100231.70;;;8.61;81.94
61697;BME280;47610;52.252;20.922;2023-04-28T23:55:42;100222.18;;;8.54;82.89
